sensor_id;sensor_type;location;lat;lon;timestamp;temperature;humidity
3846;DHT22;1938;50.812;7.738;2022-12-18T00:01:25;-7.10;39.00
3846;DHT22;1938;50.812;7.738;2022-12-18T00:03:52;-7.10;49.80
3846;DHT22;1938;50.812;7.738;2022-12-18T00:06:19;-7.10;61.10
3846;DHT22;1938;50.812;7.738;2022-12-18T00:08:45;-7.30;1.00
3846;DHT22;1938;50.812;7.738;2022-12-18T00:11:13;-7.20;58.10
3846;DHT22;1938;50.812;7.738;2022-12-18T00:13:39;-7.10;77.40
3846;DHT22;1938;50.812;7.738;2022-12-18T00:16:09;-7.20;57.70
3846;DHT22;1938;50.812;7.738;2022-12-18T00:18:35;-7.50;1.00
3846;DHT22;1938;50.812;7.738;2022-12-18T00:21:03;-7.40;59.20
3846;DHT22;1938;50.812;7.738;2022-12-18T00:23:30;-7.50;99.90
3846;DHT22;1938;50.812;7.738;2022-12-18T00:26:08;-7.50;99.90
3846;DHT22;1938;50.812;7.738;2022-12-18T00:28:36;-7.50;95.90
3846;DHT22;1938;50.812;7.738;2022-12-18T00:31:10;-7.50;99.90
3846;DHT22;1938;50.812;7.738;2022-12-18T00:33:36;-7.50;99.90
3846;DHT22;1938;50.812;7.738;2022-12-18T00:36:04;-7.50;99.90
3846;DHT22;1938;50.812;7.738;2022-12-18T00:38:30;-7.50;99.90
3846;DHT22;1938;50.812;7.738;2022-12-18T00:40:55;-7.50;99.90
3846;DHT22;1938;50.812;7.738;2022-12-18T00:43:21;-7.50;99.90
3846;DHT22;1938;50.812;7.738;2022-12-18T00:45:46;-7.60;99.90
3846;DHT22;1938;50.812;7.738;2022-12-18T00:48:12;-7.60;99.90
3846;DHT22;1938;50.812;7.738;2022-12-18T00:50:37;-7.50;99.90
3846;DHT22;1938;50.812;7.738;2022-12-18T00:53:03;-7.50;99.90
3846;DHT22;1938;50.812;7.738;2022-12-18T00:55:29;-7.60;94.40
3846;DHT22;1938;50.812;7.738;2022-12-18T00:57:54;-7.50;99.90
3846;DHT22;1938;50.812;7.738;2022-12-18T01:00:20;-7.40;99.90
3846;DHT22;1938;50.812;7.738;2022-12-18T01:02:46;-7.50;92.90
3846;DHT22;1938;50.812;7.738;2022-12-18T01:05:13;-7.40;87.80
3846;DHT22;1938;50.812;7.738;2022-12-18T01:07:38;-7.50;83.50
3846;DHT22;1938;50.812;7.738;2022-12-18T01:10:06;-7.70;80.60
3846;DHT22;1938;50.812;7.738;2022-12-18T01:12:32;-7.70;93.40
3846;DHT22;1938;50.812;7.738;2022-12-18T01:14:57;-7.70;99.90
3846;DHT22;1938;50.812;7.738;2022-12-18T01:17:23;-7.50;99.90
3846;DHT22;1938;50.812;7.738;2022-12-18T01:19:49;-7.40;99.90
3846;DHT22;1938;50.812;7.738;2022-12-18T01:22:14;-7.50;99.90
3846;DHT22;1938;50.812;7.738;2022-12-18T01:24:40;-7.70;76.00
3846;DHT22;1938;50.812;7.738;2022-12-18T01:27:06;-7.60;99.90
3846;DHT22;1938;50.812;7.738;2022-12-18T01:29:32;-7.60;94.20
3846;DHT22;1938;50.812;7.738;2022-12-18T01:31:57;-7.60;99.90
3846;DHT22;1938;50.812;7.738;2022-12-18T01:34:24;-7.60;99.90
3846;DHT22;1938;50.812;7.738;2022-12-18T01:36:49;-7.50;99.90
3846;DHT22;1938;50.812;7.738;2022-12-18T01:39:18;-7.40;99.90
3846;DHT22;1938;50.812;7.738;2022-12-18T01:41:44;-7.60;99.90
3846;DHT22;1938;50.812;7.738;2022-12-18T01:47:37;-7.60;99.90
3846;DHT22;1938;50.812;7.738;2022-12-18T01:55:35;-7.50;99.90
3846;DHT22;1938;50.812;7.738;2022-12-18T01:58:03;-7.40;99.90
3846;DHT22;1938;50.812;7.738;2022-12-18T02:00:29;-7.40;99.90
3846;DHT22;1938;50.812;7.738;2022-12-18T02:02:55;-7.40;99.90
3846;DHT22;1938;50.812;7.738;2022-12-18T02:05:44;-7.30;99.90
3846;DHT22;1938;50.812;7.738;2022-12-18T02:08:30;-7.30;99.90
3846;DHT22;1938;50.812;7.738;2022-12-18T02:13:51;-7.20;92.30
3846;DHT22;1938;50.812;7.738;2022-12-18T02:16:26;-7.40;55.90
3846;DHT22;1938;50.812;7.738;2022-12-18T02:19:06;-7.30;99.90
3846;DHT22;1938;50.812;7.738;2022-12-18T02:21:44;-7.20;99.90
3846;DHT22;1938;50.812;7.738;2022-12-18T02:27:04;-7.10;99.90
3846;DHT22;1938;50.812;7.738;2022-12-18T02:29:37;-7.10;79.20
3846;DHT22;1938;50.812;7.738;2022-12-18T02:32:08;-7.30;41.70
3846;DHT22;1938;50.812;7.738;2022-12-18T02:34:38;-7.40;35.60
3846;DHT22;1938;50.812;7.738;2022-12-18T02:37:10;-7.50;51.80
3846;DHT22;1938;50.812;7.738;2022-12-18T02:39:38;-7.60;83.40
3846;DHT22;1938;50.812;7.738;2022-12-18T02:42:05;-7.40;99.90
3846;DHT22;1938;50.812;7.738;2022-12-18T02:44:34;-7.50;99.90
3846;DHT22;1938;50.812;7.738;2022-12-18T02:47:00;-7.40;99.90
3846;DHT22;1938;50.812;7.738;2022-12-18T03:00:39;-7.30;99.90
3846;DHT22;1938;50.812;7.738;2022-12-18T03:03:18;-7.20;99.90
3846;DHT22;1938;50.812;7.738;2022-12-18T03:05:51;-7.20;83.10
3846;DHT22;1938;50.812;7.738;2022-12-18T03:08:28;-7.30;55.70
3846;DHT22;1938;50.812;7.738;2022-12-18T03:10:59;-7.40;44.30
3846;DHT22;1938;50.812;7.738;2022-12-18T03:15:56;-7.30;77.20
3846;DHT22;1938;50.812;7.738;2022-12-18T03:18:27;-7.40;52.80
3846;DHT22;1938;50.812;7.738;2022-12-18T03:20:59;-7.50;39.50
3846;DHT22;1938;50.812;7.738;2022-12-18T03:23:29;-7.40;99.90
3846;DHT22;1938;50.812;7.738;2022-12-18T03:25:59;-7.50;99.90
3846;DHT22;1938;50.812;7.738;2022-12-18T03:28:28;-7.50;99.30
3846;DHT22;1938;50.812;7.738;2022-12-18T03:30:58;-7.60;99.90
3846;DHT22;1938;50.812;7.738;2022-12-18T03:33:29;-7.50;99.90
3846;DHT22;1938;50.812;7.738;2022-12-18T03:35:56;-7.50;99.90
3846;DHT22;1938;50.812;7.738;2022-12-18T03:38:22;-7.40;99.90
3846;DHT22;1938;50.812;7.738;2022-12-18T03:41:05;-7.10;99.90
3846;DHT22;1938;50.812;7.738;2022-12-18T03:46:20;-7.20;99.90
3846;DHT22;1938;50.812;7.738;2022-12-18T03:48:55;-7.20;99.90
3846;DHT22;1938;50.812;7.738;2022-12-18T03:54:00;-7.30;99.90
3846;DHT22;1938;50.812;7.738;2022-12-18T03:56:33;-7.30;99.90
3846;DHT22;1938;50.812;7.738;2022-12-18T03:59:02;-7.30;99.90
3846;DHT22;1938;50.812;7.738;2022-12-18T04:01:38;-7.20;99.90
3846;DHT22;1938;50.812;7.738;2022-12-18T04:04:06;-7.30;99.90
3846;DHT22;1938;50.812;7.738;2022-12-18T04:06:33;-7.30;99.90
3846;DHT22;1938;50.812;7.738;2022-12-18T04:09:00;-7.30;99.90
3846;DHT22;1938;50.812;7.738;2022-12-18T04:11:26;-7.40;99.90
3846;DHT22;1938;50.812;7.738;2022-12-18T04:13:55;-7.40;99.90
3846;DHT22;1938;50.812;7.738;2022-12-18T04:16:22;-7.30;99.90
3846;DHT22;1938;50.812;7.738;2022-12-18T04:18:47;-7.50;99.90
3846;DHT22;1938;50.812;7.738;2022-12-18T04:21:13;-7.50;99.90
3846;DHT22;1938;50.812;7.738;2022-12-18T04:23:38;-7.50;99.90
3846;DHT22;1938;50.812;7.738;2022-12-18T04:26:04;-7.50;99.90
3846;DHT22;1938;50.812;7.738;2022-12-18T04:28:29;-7.40;99.90
3846;DHT22;1938;50.812;7.738;2022-12-18T04:30:55;-7.40;99.90
3846;DHT22;1938;50.812;7.738;2022-12-18T04:33:20;-7.40;99.90
3846;DHT22;1938;50.812;7.738;2022-12-18T04:35:46;-7.40;99.90
3846;DHT22;1938;50.812;7.738;2022-12-18T04:38:12;-7.30;99.90
3846;DHT22;1938;50.812;7.738;2022-12-18T04:40:38;-7.30;99.90
3846;DHT22;1938;50.812;7.738;2022-12-18T04:43:04;-7.20;99.90
3846;DHT22;1938;50.812;7.738;2022-12-18T04:45:33;-7.20;99.90
3846;DHT22;1938;50.812;7.738;2022-12-18T04:47:59;-7.20;99.90
3846;DHT22;1938;50.812;7.738;2022-12-18T04:50:25;-7.20;99.90
3846;DHT22;1938;50.812;7.738;2022-12-18T04:52:51;-7.20;99.90
3846;DHT22;1938;50.812;7.738;2022-12-18T04:55:16;-7.30;99.90
3846;DHT22;1938;50.812;7.738;2022-12-18T04:57:42;-7.30;99.90
3846;DHT22;1938;50.812;7.738;2022-12-18T05:00:08;-7.20;99.90
3846;DHT22;1938;50.812;7.738;2022-12-18T05:02:34;-7.30;99.90
3846;DHT22;1938;50.812;7.738;2022-12-18T05:05:00;-7.10;99.90
3846;DHT22;1938;50.812;7.738;2022-12-18T05:07:26;-7.10;99.90
3846;DHT22;1938;50.812;7.738;2022-12-18T05:09:51;-7.00;99.90
3846;DHT22;1938;50.812;7.738;2022-12-18T05:12:17;-7.20;99.90
3846;DHT22;1938;50.812;7.738;2022-12-18T05:14:42;-7.20;99.90
3846;DHT22;1938;50.812;7.738;2022-12-18T05:17:08;-7.20;99.90
3846;DHT22;1938;50.812;7.738;2022-12-18T05:19:34;-7.30;99.90
3846;DHT22;1938;50.812;7.738;2022-12-18T05:21:59;-7.20;99.90
3846;DHT22;1938;50.812;7.738;2022-12-18T05:24:25;-7.20;99.90
3846;DHT22;1938;50.812;7.738;2022-12-18T05:26:50;-7.20;99.90
3846;DHT22;1938;50.812;7.738;2022-12-18T05:29:16;-7.30;99.90
3846;DHT22;1938;50.812;7.738;2022-12-18T05:31:41;-7.40;99.90
3846;DHT22;1938;50.812;7.738;2022-12-18T05:34:07;-7.30;99.90
3846;DHT22;1938;50.812;7.738;2022-12-18T05:36:33;-7.30;99.90
3846;DHT22;1938;50.812;7.738;2022-12-18T05:38:58;-7.30;99.90
3846;DHT22;1938;50.812;7.738;2022-12-18T05:41:25;-7.20;99.90
3846;DHT22;1938;50.812;7.738;2022-12-18T05:43:51;-7.20;99.90
3846;DHT22;1938;50.812;7.738;2022-12-18T05:46:17;-7.20;99.90
3846;DHT22;1938;50.812;7.738;2022-12-18T05:48:44;-7.30;99.90
3846;DHT22;1938;50.812;7.738;2022-12-18T05:51:13;-7.30;99.90
3846;DHT22;1938;50.812;7.738;2022-12-18T05:53:40;-7.20;99.90
3846;DHT22;1938;50.812;7.738;2022-12-18T05:56:12;-7.20;99.90
3846;DHT22;1938;50.812;7.738;2022-12-18T05:58:37;-7.20;99.90
3846;DHT22;1938;50.812;7.738;2022-12-18T06:01:16;-7.20;99.90
3846;DHT22;1938;50.812;7.738;2022-12-18T06:03:43;-7.10;99.90
3846;DHT22;1938;50.812;7.738;2022-12-18T06:06:27;-7.10;99.90
3846;DHT22;1938;50.812;7.738;2022-12-18T06:08:54;-7.10;99.90
3846;DHT22;1938;50.812;7.738;2022-12-18T06:11:22;-6.90;99.90
3846;DHT22;1938;50.812;7.738;2022-12-18T06:13:55;-6.80;99.90
3846;DHT22;1938;50.812;7.738;2022-12-18T06:16:21;-6.80;99.90
3846;DHT22;1938;50.812;7.738;2022-12-18T06:18:46;-6.80;99.90
3846;DHT22;1938;50.812;7.738;2022-12-18T06:21:12;-6.40;99.90
3846;DHT22;1938;50.812;7.738;2022-12-18T06:23:38;-6.40;99.90
3846;DHT22;1938;50.812;7.738;2022-12-18T06:26:10;-6.40;99.90
3846;DHT22;1938;50.812;7.738;2022-12-18T06:28:36;-6.30;99.90
3846;DHT22;1938;50.812;7.738;2022-12-18T06:31:03;-6.30;99.20
3846;DHT22;1938;50.812;7.738;2022-12-18T06:33:29;-6.20;96.90
3846;DHT22;1938;50.812;7.738;2022-12-18T06:36:01;-6.20;97.00
3846;DHT22;1938;50.812;7.738;2022-12-18T06:38:27;-6.30;84.60
3846;DHT22;1938;50.812;7.738;2022-12-18T06:40:52;-6.30;50.40
3846;DHT22;1938;50.812;7.738;2022-12-18T06:43:18;-6.40;31.10
3846;DHT22;1938;50.812;7.738;2022-12-18T06:45:44;-6.40;55.40
3846;DHT22;1938;50.812;7.738;2022-12-18T06:48:09;-6.30;76.70
3846;DHT22;1938;50.812;7.738;2022-12-18T06:50:35;-6.40;44.80
3846;DHT22;1938;50.812;7.738;2022-12-18T06:53:00;-6.40;53.80
3846;DHT22;1938;50.812;7.738;2022-12-18T06:55:26;-6.40;43.50
3846;DHT22;1938;50.812;7.738;2022-12-18T06:57:51;-6.40;87.40
3846;DHT22;1938;50.812;7.738;2022-12-18T07:00:17;-6.30;99.90
3846;DHT22;1938;50.812;7.738;2022-12-18T07:02:43;-6.20;99.90
3846;DHT22;1938;50.812;7.738;2022-12-18T07:05:09;-6.10;99.90
3846;DHT22;1938;50.812;7.738;2022-12-18T07:07:35;-6.10;99.90
3846;DHT22;1938;50.812;7.738;2022-12-18T07:10:01;-6.10;74.70
3846;DHT22;1938;50.812;7.738;2022-12-18T07:12:27;-6.00;87.30
3846;DHT22;1938;50.812;7.738;2022-12-18T07:14:52;-6.00;71.10
3846;DHT22;1938;50.812;7.738;2022-12-18T07:17:18;-5.90;78.80
3846;DHT22;1938;50.812;7.738;2022-12-18T07:19:43;-5.90;53.70
3846;DHT22;1938;50.812;7.738;2022-12-18T07:22:09;-5.90;23.80
3846;DHT22;1938;50.812;7.738;2022-12-18T07:24:35;-5.90;21.10
3846;DHT22;1938;50.812;7.738;2022-12-18T07:27:00;-5.90;37.90
3846;DHT22;1938;50.812;7.738;2022-12-18T07:29:26;-5.80;29.10
3846;DHT22;1938;50.812;7.738;2022-12-18T07:31:51;-5.80;17.70
3846;DHT22;1938;50.812;7.738;2022-12-18T07:34:18;-5.80;1.00
3846;DHT22;1938;50.812;7.738;2022-12-18T07:36:43;-5.80;1.00
3846;DHT22;1938;50.812;7.738;2022-12-18T07:39:11;-5.80;1.00
3846;DHT22;1938;50.812;7.738;2022-12-18T07:41:37;-5.80;1.00
3846;DHT22;1938;50.812;7.738;2022-12-18T07:44:02;-5.80;1.00
3846;DHT22;1938;50.812;7.738;2022-12-18T07:46:28;-5.90;1.00
3846;DHT22;1938;50.812;7.738;2022-12-18T07:48:53;-5.80;1.00
3846;DHT22;1938;50.812;7.738;2022-12-18T07:51:20;-5.80;1.00
3846;DHT22;1938;50.812;7.738;2022-12-18T07:53:47;-5.80;1.00
3846;DHT22;1938;50.812;7.738;2022-12-18T07:56:12;-5.80;1.00
3846;DHT22;1938;50.812;7.738;2022-12-18T07:58:38;-5.70;1.00
3846;DHT22;1938;50.812;7.738;2022-12-18T08:01:09;-5.60;1.00
3846;DHT22;1938;50.812;7.738;2022-12-18T08:03:36;-5.60;1.00
3846;DHT22;1938;50.812;7.738;2022-12-18T08:06:07;-5.60;1.00
3846;DHT22;1938;50.812;7.738;2022-12-18T08:08:33;-5.60;99.90
3846;DHT22;1938;50.812;7.738;2022-12-18T08:11:00;-5.60;99.90
3846;DHT22;1938;50.812;7.738;2022-12-18T08:13:27;-5.60;99.90
3846;DHT22;1938;50.812;7.738;2022-12-18T08:16:01;-5.50;99.90
3846;DHT22;1938;50.812;7.738;2022-12-18T08:18:27;-5.40;99.90
3846;DHT22;1938;50.812;7.738;2022-12-18T08:20:54;-5.20;10.80
3846;DHT22;1938;50.812;7.738;2022-12-18T08:23:20;-5.10;99.90
3846;DHT22;1938;50.812;7.738;2022-12-18T08:25:46;-5.00;99.90
3846;DHT22;1938;50.812;7.738;2022-12-18T08:28:11;-5.00;1.00
3846;DHT22;1938;50.812;7.738;2022-12-18T08:30:37;-4.90;1.00
3846;DHT22;1938;50.812;7.738;2022-12-18T08:33:04;-4.90;99.90
3846;DHT22;1938;50.812;7.738;2022-12-18T08:35:30;-4.80;99.90
3846;DHT22;1938;50.812;7.738;2022-12-18T08:37:55;-4.80;72.90
3846;DHT22;1938;50.812;7.738;2022-12-18T08:40:21;-4.70;1.00
3846;DHT22;1938;50.812;7.738;2022-12-18T08:42:46;-4.70;1.00
3846;DHT22;1938;50.812;7.738;2022-12-18T08:45:30;-4.70;17.80
3846;DHT22;1938;50.812;7.738;2022-12-18T08:47:56;-4.60;99.90
3846;DHT22;1938;50.812;7.738;2022-12-18T08:50:21;-4.60;24.00
3846;DHT22;1938;50.812;7.738;2022-12-18T08:52:48;-4.40;1.00
3846;DHT22;1938;50.812;7.738;2022-12-18T08:55:13;-4.20;1.00
3846;DHT22;1938;50.812;7.738;2022-12-18T08:57:39;-4.10;99.90
3846;DHT22;1938;50.812;7.738;2022-12-18T09:00:05;-3.80;99.90
3846;DHT22;1938;50.812;7.738;2022-12-18T09:02:32;-3.50;18.80
3846;DHT22;1938;50.812;7.738;2022-12-18T09:04:57;-3.70;99.90
3846;DHT22;1938;50.812;7.738;2022-12-18T09:07:23;-3.80;99.90
3846;DHT22;1938;50.812;7.738;2022-12-18T09:09:49;-3.80;1.00
3846;DHT22;1938;50.812;7.738;2022-12-18T09:12:14;-3.40;99.90
3846;DHT22;1938;50.812;7.738;2022-12-18T09:14:40;-3.10;99.90
3846;DHT22;1938;50.812;7.738;2022-12-18T09:17:06;-3.20;99.90
3846;DHT22;1938;50.812;7.738;2022-12-18T09:19:32;-3.20;21.60
3846;DHT22;1938;50.812;7.738;2022-12-18T09:21:57;-3.20;99.90
3846;DHT22;1938;50.812;7.738;2022-12-18T09:24:23;-3.10;99.90
3846;DHT22;1938;50.812;7.738;2022-12-18T09:26:48;-3.20;99.90
3846;DHT22;1938;50.812;7.738;2022-12-18T09:29:18;-3.20;99.90
3846;DHT22;1938;50.812;7.738;2022-12-18T09:31:44;-3.10;99.90
3846;DHT22;1938;50.812;7.738;2022-12-18T09:34:10;-3.00;99.90
3846;DHT22;1938;50.812;7.738;2022-12-18T09:36:36;-2.90;99.90
3846;DHT22;1938;50.812;7.738;2022-12-18T09:39:02;-2.30;99.90
3846;DHT22;1938;50.812;7.738;2022-12-18T09:44:24;-2.80;1.00
3846;DHT22;1938;50.812;7.738;2022-12-18T09:47:09;-2.70;18.30
3846;DHT22;1938;50.812;7.738;2022-12-18T09:49:43;-2.70;1.00
3846;DHT22;1938;50.812;7.738;2022-12-18T09:52:33;-2.60;1.00
3846;DHT22;1938;50.812;7.738;2022-12-18T09:55:05;-2.40;1.00
3846;DHT22;1938;50.812;7.738;2022-12-18T09:57:34;-2.40;99.90
3846;DHT22;1938;50.812;7.738;2022-12-18T10:00:16;-2.30;99.90
3846;DHT22;1938;50.812;7.738;2022-12-18T10:02:43;-2.00;1.00
3846;DHT22;1938;50.812;7.738;2022-12-18T10:05:16;-1.90;45.50
3846;DHT22;1938;50.812;7.738;2022-12-18T10:10:47;-2.00;99.90
3846;DHT22;1938;50.812;7.738;2022-12-18T10:20:48;-2.00;99.90
3846;DHT22;1938;50.812;7.738;2022-12-18T10:23:21;-1.90;1.00
3846;DHT22;1938;50.812;7.738;2022-12-18T10:28:30;-1.80;99.90
3846;DHT22;1938;50.812;7.738;2022-12-18T10:30:56;-1.60;1.00
3846;DHT22;1938;50.812;7.738;2022-12-18T10:33:27;-1.50;99.90
3846;DHT22;1938;50.812;7.738;2022-12-18T10:35:54;-1.30;99.90
3846;DHT22;1938;50.812;7.738;2022-12-18T10:38:28;-1.20;99.90
3846;DHT22;1938;50.812;7.738;2022-12-18T10:41:06;-1.10;99.90
3846;DHT22;1938;50.812;7.738;2022-12-18T10:43:35;-1.10;44.10
3846;DHT22;1938;50.812;7.738;2022-12-18T10:48:51;-1.30;15.80
3846;DHT22;1938;50.812;7.738;2022-12-18T10:51:22;-1.20;53.60
3846;DHT22;1938;50.812;7.738;2022-12-18T10:53:54;-1.10;82.60
3846;DHT22;1938;50.812;7.738;2022-12-18T10:56:20;-0.90;27.20
3846;DHT22;1938;50.812;7.738;2022-12-18T10:58:59;-1.00;1.00
3846;DHT22;1938;50.812;7.738;2022-12-18T11:01:26;-0.90;6.30
3846;DHT22;1938;50.812;7.738;2022-12-18T11:06:24;-0.40;94.40
3846;DHT22;1938;50.812;7.738;2022-12-18T11:09:04;-0.20;1.00
3846;DHT22;1938;50.812;7.738;2022-12-18T11:11:31;-0.20;1.00
3846;DHT22;1938;50.812;7.738;2022-12-18T11:14:05;-0.10;1.00
3846;DHT22;1938;50.812;7.738;2022-12-18T11:16:42;-0.20;1.00
3846;DHT22;1938;50.812;7.738;2022-12-18T11:19:34;-0.10;1.00
3846;DHT22;1938;50.812;7.738;2022-12-18T11:22:02;-0.10;99.90
3846;DHT22;1938;50.812;7.738;2022-12-18T11:24:36;-0.20;99.90
3846;DHT22;1938;50.812;7.738;2022-12-18T11:27:05;-0.30;1.00
3846;DHT22;1938;50.812;7.738;2022-12-18T11:29:41;-0.30;1.00
3846;DHT22;1938;50.812;7.738;2022-12-18T11:32:37;-0.40;1.00
3846;DHT22;1938;50.812;7.738;2022-12-18T11:37:49;-0.60;1.00
3846;DHT22;1938;50.812;7.738;2022-12-18T11:40:20;-1.10;1.00
3846;DHT22;1938;50.812;7.738;2022-12-18T11:43:20;-1.20;1.00
3846;DHT22;1938;50.812;7.738;2022-12-18T11:45:54;-1.60;1.00
3846;DHT22;1938;50.812;7.738;2022-12-18T11:48:44;-1.90;98.00
3846;DHT22;1938;50.812;7.738;2022-12-18T11:51:14;-1.90;99.90
3846;DHT22;1938;50.812;7.738;2022-12-18T11:53:41;-2.00;99.90
3846;DHT22;1938;50.812;7.738;2022-12-18T11:56:30;-2.00;99.90
3846;DHT22;1938;50.812;7.738;2022-12-18T12:01:55;-2.00;99.90
3846;DHT22;1938;50.812;7.738;2022-12-18T12:09:24;-2.10;1.00
3846;DHT22;1938;50.812;7.738;2022-12-18T12:15:34;-2.10;99.90
3846;DHT22;1938;50.812;7.738;2022-12-18T12:18:01;-2.10;99.90
3846;DHT22;1938;50.812;7.738;2022-12-18T12:20:39;-2.10;99.90
3846;DHT22;1938;50.812;7.738;2022-12-18T12:23:41;-2.00;1.00
3846;DHT22;1938;50.812;7.738;2022-12-18T12:39:14;-2.00;1.00
3846;DHT22;1938;50.812;7.738;2022-12-18T12:41:42;-1.80;99.90
3846;DHT22;1938;50.812;7.738;2022-12-18T12:44:33;-1.60;1.00
3846;DHT22;1938;50.812;7.738;2022-12-18T12:47:04;-1.80;99.90
3846;DHT22;1938;50.812;7.738;2022-12-18T12:49:34;-1.80;1.00
3846;DHT22;1938;50.812;7.738;2022-12-18T12:54:32;-1.90;1.00
3846;DHT22;1938;50.812;7.738;2022-12-18T12:57:36;-1.90;1.00
3846;DHT22;1938;50.812;7.738;2022-12-18T13:00:16;-1.90;99.90
3846;DHT22;1938;50.812;7.738;2022-12-18T13:08:29;-1.50;99.90
3846;DHT22;1938;50.812;7.738;2022-12-18T13:10:54;-1.60;99.90
3846;DHT22;1938;50.812;7.738;2022-12-18T13:13:51;-1.60;99.90
3846;DHT22;1938;50.812;7.738;2022-12-18T13:16:21;-1.70;1.00
3846;DHT22;1938;50.812;7.738;2022-12-18T13:18:57;-1.80;99.90
3846;DHT22;1938;50.812;7.738;2022-12-18T13:21:33;-1.80;99.90
3846;DHT22;1938;50.812;7.738;2022-12-18T13:24:34;-1.80;99.90
3846;DHT22;1938;50.812;7.738;2022-12-18T13:27:00;-1.90;99.90
3846;DHT22;1938;50.812;7.738;2022-12-18T13:29:45;-1.90;99.90
3846;DHT22;1938;50.812;7.738;2022-12-18T13:32:24;-1.50;1.00
3846;DHT22;1938;50.812;7.738;2022-12-18T13:37:52;-1.80;1.00
3846;DHT22;1938;50.812;7.738;2022-12-18T13:46:27;-2.20;1.00
3846;DHT22;1938;50.812;7.738;2022-12-18T13:51:24;-2.40;1.00
3846;DHT22;1938;50.812;7.738;2022-12-18T13:53:58;-2.40;99.90
3846;DHT22;1938;50.812;7.738;2022-12-18T13:56:28;-2.10;99.90
3846;DHT22;1938;50.812;7.738;2022-12-18T13:59:16;-2.00;48.00
3846;DHT22;1938;50.812;7.738;2022-12-18T14:01:46;-2.20;1.00
3846;DHT22;1938;50.812;7.738;2022-12-18T14:04:19;-2.40;99.90
3846;DHT22;1938;50.812;7.738;2022-12-18T14:06:47;-2.40;81.80
3846;DHT22;1938;50.812;7.738;2022-12-18T14:09:16;-2.50;99.90
3846;DHT22;1938;50.812;7.738;2022-12-18T14:11:48;-2.50;83.50
3846;DHT22;1938;50.812;7.738;2022-12-18T14:14:16;-2.60;40.40
3846;DHT22;1938;50.812;7.738;2022-12-18T14:16:42;-2.60;81.00
3846;DHT22;1938;50.812;7.738;2022-12-18T14:19:14;-2.60;99.90
3846;DHT22;1938;50.812;7.738;2022-12-18T14:21:40;-2.20;99.90
3846;DHT22;1938;50.812;7.738;2022-12-18T14:26:34;-2.60;99.90
3846;DHT22;1938;50.812;7.738;2022-12-18T14:29:14;-2.80;99.90
3846;DHT22;1938;50.812;7.738;2022-12-18T14:31:43;-2.80;99.90
3846;DHT22;1938;50.812;7.738;2022-12-18T14:34:18;-3.00;99.90
3846;DHT22;1938;50.812;7.738;2022-12-18T14:36:53;-3.00;1.00
3846;DHT22;1938;50.812;7.738;2022-12-18T14:39:21;-3.10;1.00
3846;DHT22;1938;50.812;7.738;2022-12-18T14:41:49;-3.20;1.00
3846;DHT22;1938;50.812;7.738;2022-12-18T14:44:15;-3.20;1.00
3846;DHT22;1938;50.812;7.738;2022-12-18T14:46:43;-3.00;93.70
3846;DHT22;1938;50.812;7.738;2022-12-18T14:49:31;-3.00;1.00
3846;DHT22;1938;50.812;7.738;2022-12-18T14:52:06;-3.30;1.00
3846;DHT22;1938;50.812;7.738;2022-12-18T14:54:46;-3.40;15.00
3846;DHT22;1938;50.812;7.738;2022-12-18T14:59:43;-3.60;29.10
3846;DHT22;1938;50.812;7.738;2022-12-18T15:02:19;-3.70;53.60
3846;DHT22;1938;50.812;7.738;2022-12-18T15:04:46;-3.70;99.90
3846;DHT22;1938;50.812;7.738;2022-12-18T15:07:21;-3.70;99.90
3846;DHT22;1938;50.812;7.738;2022-12-18T15:21:06;-3.70;1.00
3846;DHT22;1938;50.812;7.738;2022-12-18T15:26:07;-3.70;99.90
3846;DHT22;1938;50.812;7.738;2022-12-18T15:28:45;-3.80;99.90
3846;DHT22;1938;50.812;7.738;2022-12-18T15:33:42;-3.80;96.30
3846;DHT22;1938;50.812;7.738;2022-12-18T15:36:11;-3.80;99.90
3846;DHT22;1938;50.812;7.738;2022-12-18T15:38:37;-3.80;44.00
3846;DHT22;1938;50.812;7.738;2022-12-18T15:41:03;-3.80;47.70
3846;DHT22;1938;50.812;7.738;2022-12-18T15:43:28;-3.80;97.10
3846;DHT22;1938;50.812;7.738;2022-12-18T15:46:11;-3.90;1.00
3846;DHT22;1938;50.812;7.738;2022-12-18T15:48:42;-3.80;1.00
3846;DHT22;1938;50.812;7.738;2022-12-18T15:51:20;-3.80;1.00
3846;DHT22;1938;50.812;7.738;2022-12-18T15:53:48;-3.80;1.00
3846;DHT22;1938;50.812;7.738;2022-12-18T15:56:16;-3.70;1.00
3846;DHT22;1938;50.812;7.738;2022-12-18T15:59:01;-3.60;38.50
3846;DHT22;1938;50.812;7.738;2022-12-18T16:01:29;-3.60;2.10
3846;DHT22;1938;50.812;7.738;2022-12-18T16:03:55;-3.70;1.00
3846;DHT22;1938;50.812;7.738;2022-12-18T16:06:22;-3.60;1.00
3846;DHT22;1938;50.812;7.738;2022-12-18T16:08:48;-3.70;1.00
3846;DHT22;1938;50.812;7.738;2022-12-18T16:11:28;-3.70;1.00
3846;DHT22;1938;50.812;7.738;2022-12-18T16:14:22;-3.60;1.00
3846;DHT22;1938;50.812;7.738;2022-12-18T16:16:52;-3.50;1.00
3846;DHT22;1938;50.812;7.738;2022-12-18T16:19:18;-3.70;1.00
3846;DHT22;1938;50.812;7.738;2022-12-18T16:21:45;-3.70;1.00
3846;DHT22;1938;50.812;7.738;2022-12-18T16:24:40;-3.70;1.00
3846;DHT22;1938;50.812;7.738;2022-12-18T16:27:07;-3.60;99.90
3846;DHT22;1938;50.812;7.738;2022-12-18T16:29:33;-3.60;99.90
3846;DHT22;1938;50.812;7.738;2022-12-18T16:32:00;-3.40;99.90
3846;DHT22;1938;50.812;7.738;2022-12-18T16:34:33;-3.30;1.00
3846;DHT22;1938;50.812;7.738;2022-12-18T16:37:04;-3.20;99.90
3846;DHT22;1938;50.812;7.738;2022-12-18T16:39:35;-3.10;99.90
3846;DHT22;1938;50.812;7.738;2022-12-18T16:42:03;-3.00;99.90
3846;DHT22;1938;50.812;7.738;2022-12-18T16:44:29;-3.00;99.90
3846;DHT22;1938;50.812;7.738;2022-12-18T16:46:54;-2.90;99.90
3846;DHT22;1938;50.812;7.738;2022-12-18T16:49:22;-2.90;1.00
3846;DHT22;1938;50.812;7.738;2022-12-18T16:51:47;-2.90;1.00
3846;DHT22;1938;50.812;7.738;2022-12-18T16:54:13;-2.90;1.00
3846;DHT22;1938;50.812;7.738;2022-12-18T16:56:39;-2.90;1.00
3846;DHT22;1938;50.812;7.738;2022-12-18T16:59:05;-2.90;1.00
3846;DHT22;1938;50.812;7.738;2022-12-18T17:01:31;-3.10;99.90
3846;DHT22;1938;50.812;7.738;2022-12-18T17:04:02;-3.20;1.00
3846;DHT22;1938;50.812;7.738;2022-12-18T17:06:30;-3.40;1.00
3846;DHT22;1938;50.812;7.738;2022-12-18T17:09:00;-3.30;1.00
3846;DHT22;1938;50.812;7.738;2022-12-18T17:11:27;-3.40;1.00
3846;DHT22;1938;50.812;7.738;2022-12-18T17:13:53;-3.40;14.50
3846;DHT22;1938;50.812;7.738;2022-12-18T17:16:19;-3.30;16.40
3846;DHT22;1938;50.812;7.738;2022-12-18T17:18:46;-3.30;1.00
3846;DHT22;1938;50.812;7.738;2022-12-18T17:21:13;-3.50;1.00
3846;DHT22;1938;50.812;7.738;2022-12-18T17:23:43;-3.60;1.00
3846;DHT22;1938;50.812;7.738;2022-12-18T17:26:10;-3.80;39.40
3846;DHT22;1938;50.812;7.738;2022-12-18T17:28:37;-3.80;99.90
3846;DHT22;1938;50.812;7.738;2022-12-18T17:31:19;-3.80;99.90
3846;DHT22;1938;50.812;7.738;2022-12-18T17:33:44;-3.70;99.90
3846;DHT22;1938;50.812;7.738;2022-12-18T17:36:11;-3.60;99.90
3846;DHT22;1938;50.812;7.738;2022-12-18T17:38:37;-3.50;99.90
3846;DHT22;1938;50.812;7.738;2022-12-18T17:41:05;-3.60;97.70
3846;DHT22;1938;50.812;7.738;2022-12-18T17:43:32;-3.50;99.90
3846;DHT22;1938;50.812;7.738;2022-12-18T17:46:02;-3.40;99.90
3846;DHT22;1938;50.812;7.738;2022-12-18T17:48:28;-3.50;93.30
3846;DHT22;1938;50.812;7.738;2022-12-18T17:50:54;-3.40;99.90
3846;DHT22;1938;50.812;7.738;2022-12-18T17:53:19;-3.40;99.90
3846;DHT22;1938;50.812;7.738;2022-12-18T17:55:55;-3.50;99.90
3846;DHT22;1938;50.812;7.738;2022-12-18T17:58:23;-3.70;99.90
3846;DHT22;1938;50.812;7.738;2022-12-18T18:00:48;-3.90;1.00
3846;DHT22;1938;50.812;7.738;2022-12-18T18:03:14;-3.90;55.00
3846;DHT22;1938;50.812;7.738;2022-12-18T18:05:40;-3.80;1.00
3846;DHT22;1938;50.812;7.738;2022-12-18T18:08:05;-3.80;39.40
3846;DHT22;1938;50.812;7.738;2022-12-18T18:10:31;-3.90;99.90
3846;DHT22;1938;50.812;7.738;2022-12-18T18:12:58;-4.00;99.90
3846;DHT22;1938;50.812;7.738;2022-12-18T18:15:42;-3.90;99.90
3846;DHT22;1938;50.812;7.738;2022-12-18T18:18:07;-4.00;99.90
3846;DHT22;1938;50.812;7.738;2022-12-18T18:20:37;-3.90;1.00
3846;DHT22;1938;50.812;7.738;2022-12-18T18:23:03;-3.90;1.00